sensor_id;sensor_type;location;lat;lon;timestamp;P1;durP1;ratioP1;P2;durP2;ratioP2
23302;SDS011;11820;48.738;9.092;2023-05-09T00:01:36;17.20;;;15.60;;
23302;SDS011;11820;48.738;9.092;2023-05-09T00:04:03;17.40;;;15.87;;
23302;SDS011;11820;48.738;9.092;2023-05-09T00:06:29;17.13;;;15.53;;
23302;SDS011;11820;48.738;9.092;2023-05-09T00:08:54;18.20;;;16.50;;
23302;SDS011;11820;48.738;9.092;2023-05-09T00:11:19;18.60;;;16.90;;
23302;SDS011;11820;48.738;9.092;2023-05-09T00:13:46;16.97;;;15.37;;
23302;SDS011;11820;48.738;9.092;2023-05-09T00:16:11;17.47;;;15.87;;
23302;SDS011;11820;48.738;9.092;2023-05-09T00:18:37;19.73;;;17.83;;
23302;SDS011;11820;48.738;9.092;2023-05-09T00:21:06;18.13;;;16.43;;
23302;SDS011;11820;48.738;9.092;2023-05-09T00:23:32;20.00;;;18.10;;
23302;SDS011;11820;48.738;9.092;2023-05-09T00:25:58;19.90;;;17.87;;
23302;SDS011;11820;48.738;9.092;2023-05-09T00:28:24;18.70;;;16.80;;
23302;SDS011;11820;48.738;9.092;2023-05-09T00:30:49;19.40;;;17.50;;
23302;SDS011;11820;48.738;9.092;2023-05-09T00:33:15;19.80;;;17.80;;
23302;SDS011;11820;48.738;9.092;2023-05-09T00:35:40;19.23;;;17.33;;
23302;SDS011;11820;48.738;9.092;2023-05-09T00:38:05;19.53;;;17.57;;
23302;SDS011;11820;48.738;9.092;2023-05-09T00:40:31;19.47;;;17.50;;
23302;SDS011;11820;48.738;9.092;2023-05-09T00:42:57;19.90;;;17.93;;
23302;SDS011;11820;48.738;9.092;2023-05-09T00:45:23;20.70;;;18.50;;
23302;SDS011;11820;48.738;9.092;2023-05-09T00:47:48;19.80;;;17.90;;
23302;SDS011;11820;48.738;9.092;2023-05-09T00:50:14;21.10;;;19.00;;
23302;SDS011;11820;48.738;9.092;2023-05-09T00:52:40;20.80;;;18.57;;
23302;SDS011;11820;48.738;9.092;2023-05-09T00:55:05;21.00;;;18.87;;
23302;SDS011;11820;48.738;9.092;2023-05-09T00:57:32;23.50;;;18.23;;
23302;SDS011;11820;48.738;9.092;2023-05-09T00:59:58;20.50;;;18.43;;
23302;SDS011;11820;48.738;9.092;2023-05-09T01:02:24;21.00;;;19.00;;
23302;SDS011;11820;48.738;9.092;2023-05-09T01:04:51;20.87;;;18.80;;
23302;SDS011;11820;48.738;9.092;2023-05-09T01:07:32;21.87;;;19.73;;
23302;SDS011;11820;48.738;9.092;2023-05-09T01:10:08;22.67;;;20.27;;
23302;SDS011;11820;48.738;9.092;2023-05-09T01:12:45;22.67;;;20.00;;
23302;SDS011;11820;48.738;9.092;2023-05-09T01:17:54;22.37;;;19.97;;
23302;SDS011;11820;48.738;9.092;2023-05-09T01:26:09;23.57;;;21.13;;
23302;SDS011;11820;48.738;9.092;2023-05-09T01:31:40;24.70;;;22.03;;
23302;SDS011;11820;48.738;9.092;2023-05-09T01:34:07;24.03;;;21.73;;
23302;SDS011;11820;48.738;9.092;2023-05-09T01:36:35;23.07;;;20.77;;
23302;SDS011;11820;48.738;9.092;2023-05-09T01:39:03;23.30;;;20.90;;
23302;SDS011;11820;48.738;9.092;2023-05-09T01:41:30;24.53;;;22.13;;
23302;SDS011;11820;48.738;9.092;2023-05-09T01:43:58;23.50;;;20.93;;
23302;SDS011;11820;48.738;9.092;2023-05-09T01:46:27;23.20;;;20.97;;
23302;SDS011;11820;48.738;9.092;2023-05-09T01:48:54;22.33;;;20.17;;
23302;SDS011;11820;48.738;9.092;2023-05-09T01:51:21;22.77;;;20.47;;
23302;SDS011;11820;48.738;9.092;2023-05-09T01:53:48;23.33;;;20.90;;
23302;SDS011;11820;48.738;9.092;2023-05-09T01:56:15;22.77;;;20.47;;
23302;SDS011;11820;48.738;9.092;2023-05-09T01:58:42;23.93;;;21.63;;
23302;SDS011;11820;48.738;9.092;2023-05-09T02:01:12;23.97;;;21.67;;
23302;SDS011;11820;48.738;9.092;2023-05-09T02:03:38;23.87;;;21.37;;
23302;SDS011;11820;48.738;9.092;2023-05-09T02:06:04;24.20;;;21.03;;
23302;SDS011;11820;48.738;9.092;2023-05-09T02:08:31;25.70;;;23.10;;
23302;SDS011;11820;48.738;9.092;2023-05-09T02:10:57;24.53;;;21.67;;
23302;SDS011;11820;48.738;9.092;2023-05-09T02:13:23;24.13;;;21.80;;
23302;SDS011;11820;48.738;9.092;2023-05-09T02:15:48;21.93;;;19.63;;
23302;SDS011;11820;48.738;9.092;2023-05-09T02:18:14;22.77;;;20.43;;
23302;SDS011;11820;48.738;9.092;2023-05-09T02:20:40;22.80;;;20.37;;
23302;SDS011;11820;48.738;9.092;2023-05-09T02:23:06;23.87;;;20.70;;
23302;SDS011;11820;48.738;9.092;2023-05-09T02:25:32;22.83;;;20.57;;
23302;SDS011;11820;48.738;9.092;2023-05-09T02:27:58;22.73;;;20.43;;
23302;SDS011;11820;48.738;9.092;2023-05-09T02:30:25;22.33;;;19.97;;
23302;SDS011;11820;48.738;9.092;2023-05-09T02:32:58;22.80;;;20.50;;
23302;SDS011;11820;48.738;9.092;2023-05-09T02:35:28;23.40;;;21.00;;
23302;SDS011;11820;48.738;9.092;2023-05-09T02:37:54;23.63;;;21.13;;
23302;SDS011;11820;48.738;9.092;2023-05-09T02:40:21;22.43;;;20.33;;
23302;SDS011;11820;48.738;9.092;2023-05-09T02:42:48;21.80;;;19.63;;
23302;SDS011;11820;48.738;9.092;2023-05-09T02:45:13;23.33;;;21.03;;
23302;SDS011;11820;48.738;9.092;2023-05-09T02:47:39;24.07;;;20.73;;
23302;SDS011;11820;48.738;9.092;2023-05-09T02:50:05;24.77;;;22.17;;
23302;SDS011;11820;48.738;9.092;2023-05-09T02:52:30;22.30;;;20.13;;
23302;SDS011;11820;48.738;9.092;2023-05-09T02:54:56;22.77;;;20.53;;
23302;SDS011;11820;48.738;9.092;2023-05-09T02:57:22;21.63;;;19.60;;
23302;SDS011;11820;48.738;9.092;2023-05-09T02:59:47;24.00;;;21.60;;
23302;SDS011;11820;48.738;9.092;2023-05-09T03:02:12;24.27;;;21.67;;
23302;SDS011;11820;48.738;9.092;2023-05-09T03:04:38;24.17;;;21.57;;
23302;SDS011;11820;48.738;9.092;2023-05-09T03:07:03;24.73;;;22.33;;
23302;SDS011;11820;48.738;9.092;2023-05-09T03:09:28;23.67;;;21.23;;
23302;SDS011;11820;48.738;9.092;2023-05-09T03:11:54;22.33;;;20.03;;
23302;SDS011;11820;48.738;9.092;2023-05-09T03:14:20;24.40;;;21.90;;
23302;SDS011;11820;48.738;9.092;2023-05-09T03:16:46;24.70;;;22.10;;
23302;SDS011;11820;48.738;9.092;2023-05-09T03:19:11;25.50;;;22.73;;
23302;SDS011;11820;48.738;9.092;2023-05-09T03:21:36;26.27;;;21.83;;
23302;SDS011;11820;48.738;9.092;2023-05-09T03:24:02;24.83;;;22.33;;
23302;SDS011;11820;48.738;9.092;2023-05-09T03:26:28;25.93;;;22.60;;
23302;SDS011;11820;48.738;9.092;2023-05-09T03:28:54;24.03;;;21.63;;
23302;SDS011;11820;48.738;9.092;2023-05-09T03:31:19;24.23;;;21.80;;
23302;SDS011;11820;48.738;9.092;2023-05-09T03:33:45;25.33;;;21.33;;
23302;SDS011;11820;48.738;9.092;2023-05-09T03:36:10;23.13;;;20.70;;
23302;SDS011;11820;48.738;9.092;2023-05-09T03:38:36;24.53;;;22.13;;
23302;SDS011;11820;48.738;9.092;2023-05-09T03:41:01;26.20;;;23.60;;
23302;SDS011;11820;48.738;9.092;2023-05-09T03:43:26;26.30;;;23.37;;
23302;SDS011;11820;48.738;9.092;2023-05-09T03:45:52;25.90;;;23.27;;
23302;SDS011;11820;48.738;9.092;2023-05-09T03:48:17;27.73;;;24.57;;
23302;SDS011;11820;48.738;9.092;2023-05-09T03:50:42;26.83;;;23.57;;
23302;SDS011;11820;48.738;9.092;2023-05-09T03:53:08;25.37;;;22.83;;
23302;SDS011;11820;48.738;9.092;2023-05-09T03:55:33;26.50;;;23.70;;
23302;SDS011;11820;48.738;9.092;2023-05-09T03:57:59;25.67;;;22.93;;
23302;SDS011;11820;48.738;9.092;2023-05-09T04:00:24;25.77;;;23.07;;
23302;SDS011;11820;48.738;9.092;2023-05-09T04:02:52;23.00;;;20.50;;
23302;SDS011;11820;48.738;9.092;2023-05-09T04:05:18;24.93;;;21.60;;
23302;SDS011;11820;48.738;9.092;2023-05-09T04:07:43;23.97;;;21.63;;
23302;SDS011;11820;48.738;9.092;2023-05-09T04:10:09;23.80;;;21.30;;
23302;SDS011;11820;48.738;9.092;2023-05-09T04:12:34;23.37;;;20.97;;
23302;SDS011;11820;48.738;9.092;2023-05-09T04:14:59;22.27;;;19.80;;
23302;SDS011;11820;48.738;9.092;2023-05-09T04:17:25;23.30;;;20.50;;
23302;SDS011;11820;48.738;9.092;2023-05-09T04:19:50;24.70;;;20.47;;
23302;SDS011;11820;48.738;9.092;2023-05-09T04:22:15;22.20;;;19.93;;
23302;SDS011;11820;48.738;9.092;2023-05-09T04:24:41;22.70;;;20.27;;
23302;SDS011;11820;48.738;9.092;2023-05-09T04:27:06;22.97;;;20.53;;
23302;SDS011;11820;48.738;9.092;2023-05-09T04:29:32;23.33;;;20.93;;
23302;SDS011;11820;48.738;9.092;2023-05-09T04:31:57;24.60;;;21.97;;
23302;SDS011;11820;48.738;9.092;2023-05-09T04:34:23;22.90;;;20.50;;
23302;SDS011;11820;48.738;9.092;2023-05-09T04:36:50;21.13;;;18.97;;
23302;SDS011;11820;48.738;9.092;2023-05-09T04:39:16;23.23;;;20.83;;
23302;SDS011;11820;48.738;9.092;2023-05-09T04:41:41;23.20;;;20.83;;
23302;SDS011;11820;48.738;9.092;2023-05-09T04:44:08;24.13;;;21.57;;
23302;SDS011;11820;48.738;9.092;2023-05-09T04:46:34;22.90;;;20.50;;
23302;SDS011;11820;48.738;9.092;2023-05-09T04:48:59;24.97;;;19.20;;
23302;SDS011;11820;48.738;9.092;2023-05-09T04:51:24;21.43;;;19.33;;
23302;SDS011;11820;48.738;9.092;2023-05-09T04:53:50;21.73;;;19.53;;
23302;SDS011;11820;48.738;9.092;2023-05-09T04:56:15;20.50;;;18.47;;
23302;SDS011;11820;48.738;9.092;2023-05-09T04:58:40;20.00;;;16.73;;
23302;SDS011;11820;48.738;9.092;2023-05-09T05:01:06;18.47;;;16.67;;
23302;SDS011;11820;48.738;9.092;2023-05-09T05:03:31;20.00;;;18.00;;
23302;SDS011;11820;48.738;9.092;2023-05-09T05:05:57;19.67;;;17.57;;
23302;SDS011;11820;48.738;9.092;2023-05-09T05:08:22;20.17;;;18.07;;
23302;SDS011;11820;48.738;9.092;2023-05-09T05:10:48;19.93;;;17.63;;
23302;SDS011;11820;48.738;9.092;2023-05-09T05:13:14;18.83;;;16.83;;
23302;SDS011;11820;48.738;9.092;2023-05-09T05:15:40;18.93;;;16.97;;
23302;SDS011;11820;48.738;9.092;2023-05-09T05:18:06;18.70;;;16.80;;
23302;SDS011;11820;48.738;9.092;2023-05-09T05:20:31;16.67;;;14.97;;
23302;SDS011;11820;48.738;9.092;2023-05-09T05:22:57;17.27;;;15.53;;
23302;SDS011;11820;48.738;9.092;2023-05-09T05:25:22;15.93;;;14.23;;
23302;SDS011;11820;48.738;9.092;2023-05-09T05:27:48;14.37;;;13.13;;
23302;SDS011;11820;48.738;9.092;2023-05-09T05:30:13;14.90;;;13.40;;
23302;SDS011;11820;48.738;9.092;2023-05-09T05:32:42;15.23;;;13.77;;
23302;SDS011;11820;48.738;9.092;2023-05-09T05:35:08;14.27;;;12.80;;
23302;SDS011;11820;48.738;9.092;2023-05-09T05:37:35;12.93;;;11.73;;
23302;SDS011;11820;48.738;9.092;2023-05-09T05:40:04;12.80;;;11.53;;
23302;SDS011;11820;48.738;9.092;2023-05-09T05:42:30;13.20;;;12.00;;
23302;SDS011;11820;48.738;9.092;2023-05-09T05:44:56;13.03;;;11.83;;
23302;SDS011;11820;48.738;9.092;2023-05-09T05:47:21;11.87;;;10.80;;
23302;SDS011;11820;48.738;9.092;2023-05-09T05:49:46;13.07;;;11.77;;
23302;SDS011;11820;48.738;9.092;2023-05-09T05:52:12;12.10;;;11.00;;
23302;SDS011;11820;48.738;9.092;2023-05-09T05:54:37;11.63;;;10.50;;
23302;SDS011;11820;48.738;9.092;2023-05-09T05:57:02;11.93;;;10.83;;
23302;SDS011;11820;48.738;9.092;2023-05-09T05:59:27;12.87;;;11.13;;
23302;SDS011;11820;48.738;9.092;2023-05-09T06:01:53;11.33;;;10.33;;
23302;SDS011;11820;48.738;9.092;2023-05-09T06:04:18;12.43;;;11.20;;
23302;SDS011;11820;48.738;9.092;2023-05-09T06:06:44;12.83;;;11.73;;
23302;SDS011;11820;48.738;9.092;2023-05-09T06:09:09;13.47;;;12.10;;
23302;SDS011;11820;48.738;9.092;2023-05-09T06:11:35;14.07;;;12.77;;
23302;SDS011;11820;48.738;9.092;2023-05-09T06:14:00;13.53;;;12.23;;
23302;SDS011;11820;48.738;9.092;2023-05-09T06:16:26;13.20;;;11.90;;
23302;SDS011;11820;48.738;9.092;2023-05-09T06:18:51;14.17;;;12.83;;
23302;SDS011;11820;48.738;9.092;2023-05-09T06:21:17;12.67;;;11.47;;
23302;SDS011;11820;48.738;9.092;2023-05-09T06:23:42;14.57;;;13.23;;
23302;SDS011;11820;48.738;9.092;2023-05-09T06:26:07;14.43;;;13.07;;
23302;SDS011;11820;48.738;9.092;2023-05-09T06:28:33;15.03;;;13.53;;
23302;SDS011;11820;48.738;9.092;2023-05-09T06:30:58;14.33;;;12.93;;
23302;SDS011;11820;48.738;9.092;2023-05-09T06:33:24;14.27;;;12.77;;
23302;SDS011;11820;48.738;9.092;2023-05-09T06:35:50;15.27;;;13.67;;
23302;SDS011;11820;48.738;9.092;2023-05-09T06:38:15;16.90;;;15.30;;
23302;SDS011;11820;48.738;9.092;2023-05-09T06:40:40;19.70;;;17.70;;
23302;SDS011;11820;48.738;9.092;2023-05-09T06:43:06;17.80;;;16.00;;
23302;SDS011;11820;48.738;9.092;2023-05-09T06:45:31;17.87;;;16.07;;
23302;SDS011;11820;48.738;9.092;2023-05-09T06:47:56;17.13;;;15.53;;
23302;SDS011;11820;48.738;9.092;2023-05-09T06:50:22;17.17;;;15.47;;
23302;SDS011;11820;48.738;9.092;2023-05-09T06:52:47;18.63;;;16.83;;
23302;SDS011;11820;48.738;9.092;2023-05-09T06:55:13;16.83;;;15.07;;
23302;SDS011;11820;48.738;9.092;2023-05-09T06:57:38;17.23;;;15.53;;
23302;SDS011;11820;48.738;9.092;2023-05-09T07:00:07;18.93;;;16.93;;
23302;SDS011;11820;48.738;9.092;2023-05-09T07:02:33;18.60;;;16.70;;
23302;SDS011;11820;48.738;9.092;2023-05-09T07:04:58;18.93;;;17.03;;
23302;SDS011;11820;48.738;9.092;2023-05-09T07:07:24;23.40;;;16.40;;
23302;SDS011;11820;48.738;9.092;2023-05-09T07:09:49;19.73;;;17.53;;
23302;SDS011;11820;48.738;9.092;2023-05-09T07:12:14;22.00;;;19.60;;
23302;SDS011;11820;48.738;9.092;2023-05-09T07:14:40;19.27;;;17.40;;
23302;SDS011;11820;48.738;9.092;2023-05-09T07:17:06;18.30;;;16.37;;
23302;SDS011;11820;48.738;9.092;2023-05-09T07:19:32;18.33;;;16.43;;
23302;SDS011;11820;48.738;9.092;2023-05-09T07:21:58;19.13;;;17.33;;
23302;SDS011;11820;48.738;9.092;2023-05-09T07:24:23;19.43;;;17.43;;
23302;SDS011;11820;48.738;9.092;2023-05-09T07:26:48;20.53;;;18.17;;
23302;SDS011;11820;48.738;9.092;2023-05-09T07:29:14;19.30;;;17.40;;
23302;SDS011;11820;48.738;9.092;2023-05-09T07:31:39;20.13;;;17.30;;
23302;SDS011;11820;48.738;9.092;2023-05-09T07:34:04;19.47;;;17.47;;
23302;SDS011;11820;48.738;9.092;2023-05-09T07:36:30;21.43;;;18.60;;
23302;SDS011;11820;48.738;9.092;2023-05-09T07:38:55;18.80;;;16.90;;
23302;SDS011;11820;48.738;9.092;2023-05-09T07:41:20;16.87;;;15.17;;
23302;SDS011;11820;48.738;9.092;2023-05-09T07:43:46;18.37;;;16.47;;
23302;SDS011;11820;48.738;9.092;2023-05-09T07:46:11;18.80;;;16.80;;
23302;SDS011;11820;48.738;9.092;2023-05-09T07:48:37;21.53;;;17.43;;
23302;SDS011;11820;48.738;9.092;2023-05-09T07:51:02;20.93;;;18.93;;
23302;SDS011;11820;48.738;9.092;2023-05-09T07:53:27;19.57;;;17.40;;
23302;SDS011;11820;48.738;9.092;2023-05-09T07:55:53;18.57;;;16.63;;
23302;SDS011;11820;48.738;9.092;2023-05-09T07:58:18;18.40;;;16.60;;
23302;SDS011;11820;48.738;9.092;2023-05-09T08:00:43;17.90;;;16.20;;
23302;SDS011;11820;48.738;9.092;2023-05-09T08:03:08;19.30;;;17.50;;
23302;SDS011;11820;48.738;9.092;2023-05-09T08:05:34;19.37;;;17.30;;
23302;SDS011;11820;48.738;9.092;2023-05-09T08:07:59;19.00;;;16.47;;
23302;SDS011;11820;48.738;9.092;2023-05-09T08:10:24;17.00;;;15.30;;
23302;SDS011;11820;48.738;9.092;2023-05-09T08:12:54;16.47;;;14.87;;
23302;SDS011;11820;48.738;9.092;2023-05-09T08:15:19;17.10;;;15.27;;
23302;SDS011;11820;48.738;9.092;2023-05-09T08:17:45;17.27;;;15.63;;
23302;SDS011;11820;48.738;9.092;2023-05-09T08:20:10;17.47;;;15.70;;
23302;SDS011;11820;48.738;9.092;2023-05-09T08:22:37;17.30;;;15.27;;
23302;SDS011;11820;48.738;9.092;2023-05-09T08:25:06;17.80;;;15.90;;
23302;SDS011;11820;48.738;9.092;2023-05-09T08:27:32;15.80;;;14.23;;
23302;SDS011;11820;48.738;9.092;2023-05-09T08:29:57;15.13;;;13.73;;
23302;SDS011;11820;48.738;9.092;2023-05-09T08:32:22;16.17;;;14.53;;
23302;SDS011;11820;48.738;9.092;2023-05-09T08:34:48;14.90;;;13.40;;
23302;SDS011;11820;48.738;9.092;2023-05-09T08:37:13;14.90;;;13.40;;
23302;SDS011;11820;48.738;9.092;2023-05-09T08:39:38;13.10;;;11.80;;
23302;SDS011;11820;48.738;9.092;2023-05-09T08:42:04;14.87;;;13.33;;
23302;SDS011;11820;48.738;9.092;2023-05-09T08:44:30;11.97;;;10.77;;
23302;SDS011;11820;48.738;9.092;2023-05-09T08:47:01;13.60;;;12.30;;
23302;SDS011;11820;48.738;9.092;2023-05-09T08:49:28;13.27;;;11.83;;
23302;SDS011;11820;48.738;9.092;2023-05-09T08:51:54;15.57;;;12.57;;
23302;SDS011;11820;48.738;9.092;2023-05-09T08:54:20;12.83;;;11.63;;
23302;SDS011;11820;48.738;9.092;2023-05-09T08:56:46;10.83;;;9.67;;
23302;SDS011;11820;48.738;9.092;2023-05-09T08:59:12;11.80;;;10.67;;
23302;SDS011;11820;48.738;9.092;2023-05-09T09:01:38;10.60;;;8.43;;
23302;SDS011;11820;48.738;9.092;2023-05-09T09:04:05;11.37;;;10.23;;
23302;SDS011;11820;48.738;9.092;2023-05-09T09:06:32;13.07;;;11.77;;
23302;SDS011;11820;48.738;9.092;2023-05-09T09:08:58;12.30;;;10.83;;
23302;SDS011;11820;48.738;9.092;2023-05-09T09:11:25;11.90;;;10.80;;
23302;SDS011;11820;48.738;9.092;2023-05-09T09:13:54;13.33;;;10.90;;
23302;SDS011;11820;48.738;9.092;2023-05-09T09:16:24;11.77;;;10.00;;
23302;SDS011;11820;48.738;9.092;2023-05-09T09:18:53;9.27;;;8.47;;
23302;SDS011;11820;48.738;9.092;2023-05-09T09:21:20;7.80;;;7.10;;
23302;SDS011;11820;48.738;9.092;2023-05-09T09:23:46;9.43;;;8.37;;
23302;SDS011;11820;48.738;9.092;2023-05-09T09:26:12;8.90;;;8.07;;
23302;SDS011;11820;48.738;9.092;2023-05-09T09:28:38;9.70;;;8.73;;
23302;SDS011;11820;48.738;9.092;2023-05-09T09:31:25;9.50;;;8.50;;
23302;SDS011;11820;48.738;9.092;2023-05-09T09:34:01;9.90;;;9.00;;
23302;SDS011;11820;48.738;9.092;2023-05-09T09:36:28;11.87;;;8.30;;
23302;SDS011;11820;48.738;9.092;2023-05-09T09:38:58;8.80;;;7.90;;
23302;SDS011;11820;48.738;9.092;2023-05-09T09:41:35;8.30;;;7.60;;
23302;SDS011;11820;48.738;9.092;2023-05-09T09:44:35;7.73;;;6.93;;
23302;SDS011;11820;48.738;9.092;2023-05-09T09:46:55;7.60;;;6.90;;
23302;SDS011;11820;48.738;9.092;2023-05-09T09:49:21;7.60;;;6.77;;
23302;SDS011;11820;48.738;9.092;2023-05-09T09:51:49;7.37;;;6.67;;
23302;SDS011;11820;48.738;9.092;2023-05-09T09:54:18;6.90;;;6.30;;
23302;SDS011;11820;48.738;9.092;2023-05-09T09:56:44;7.13;;;6.53;;
23302;SDS011;11820;48.738;9.092;2023-05-09T09:59:12;6.53;;;5.93;;
23302;SDS011;11820;48.738;9.092;2023-05-09T10:01:55;7.87;;;5.83;;
23302;SDS011;11820;48.738;9.092;2023-05-09T10:04:32;6.47;;;5.77;;
23302;SDS011;11820;48.738;9.092;2023-05-09T10:07:00;6.83;;;6.03;;
23302;SDS011;11820;48.738;9.092;2023-05-09T10:09:30;5.93;;;5.43;;
23302;SDS011;11820;48.738;9.092;2023-05-09T10:11:59;6.07;;;5.47;;
23302;SDS011;11820;48.738;9.092;2023-05-09T10:14:26;7.80;;;4.87;;
23302;SDS011;11820;48.738;9.092;2023-05-09T10:16:55;6.10;;;5.50;;
23302;SDS011;11820;48.738;9.092;2023-05-09T10:19:22;6.23;;;5.73;;
23302;SDS011;11820;48.738;9.092;2023-05-09T10:21:53;6.93;;;6.23;;
23302;SDS011;11820;48.738;9.092;2023-05-09T10:25:07;7.20;;;6.40;;
23302;SDS011;11820;48.738;9.092;2023-05-09T10:27:11;7.37;;;6.37;;
23302;SDS011;11820;48.738;9.092;2023-05-09T10:29:39;6.30;;;5.80;;
23302;SDS011;11820;48.738;9.092;2023-05-09T10:32:15;6.60;;;6.00;;
23302;SDS011;11820;48.738;9.092;2023-05-09T10:34:43;6.93;;;6.33;;
23302;SDS011;11820;48.738;9.092;2023-05-09T10:37:13;8.30;;;6.47;;
23302;SDS011;11820;48.738;9.092;2023-05-09T10:39:39;7.97;;;7.17;;
23302;SDS011;11820;48.738;9.092;2023-05-09T10:42:06;9.27;;;8.47;;
23302;SDS011;11820;48.738;9.092;2023-05-09T10:44:32;10.23;;;9.07;;
23302;SDS011;11820;48.738;9.092;2023-05-09T10:46:58;10.17;;;8.67;;
23302;SDS011;11820;48.738;9.092;2023-05-09T10:49:25;9.17;;;8.10;;
23302;SDS011;11820;48.738;9.092;2023-05-09T10:51:51;9.10;;;8.23;;
23302;SDS011;11820;48.738;9.092;2023-05-09T10:54:24;10.90;;;9.80;;
23302;SDS011;11820;48.738;9.092;2023-05-09T10:56:52;10.40;;;8.90;;
23302;SDS011;11820;48.738;9.092;2023-05-09T11:02:01;8.70;;;7.90;;
23302;SDS011;11820;48.738;9.092;2023-05-09T11:04:28;8.80;;;7.93;;
23302;SDS011;11820;48.738;9.092;2023-05-09T11:06:55;8.47;;;7.63;;
23302;SDS011;11820;48.738;9.092;2023-05-09T11:09:27;9.60;;;7.07;;
23302;SDS011;11820;48.738;9.092;2023-05-09T11:12:09;9.03;;;8.17;;
23302;SDS011;11820;48.738;9.092;2023-05-09T11:17:04;6.93;;;6.23;;
23302;SDS011;11820;48.738;9.092;2023-05-09T11:19:39;6.97;;;5.33;;
23302;SDS011;11820;48.738;9.092;2023-05-09T11:22:23;8.30;;;6.50;;
23302;SDS011;11820;48.738;9.092;2023-05-09T11:24:50;7.93;;;5.93;;
23302;SDS011;11820;48.738;9.092;2023-05-09T11:27:21;5.80;;;5.30;;
23302;SDS011;11820;48.738;9.092;2023-05-09T11:29:55;4.93;;;4.53;;
23302;SDS011;11820;48.738;9.092;2023-05-09T11:32:25;7.03;;;4.37;;
23302;SDS011;11820;48.738;9.092;2023-05-09T11:34:52;6.87;;;4.20;;
23302;SDS011;11820;48.738;9.092;2023-05-09T11:37:30;3.10;;;2.80;;
23302;SDS011;11820;48.738;9.092;2023-05-09T11:39:57;3.30;;;3.10;;
23302;SDS011;11820;48.738;9.092;2023-05-09T11:42:24;3.13;;;2.83;;
23302;SDS011;11820;48.738;9.092;2023-05-09T11:44:52;3.80;;;3.50;;
23302;SDS011;11820;48.738;9.092;2023-05-09T11:47:18;3.37;;;3.07;;
23302;SDS011;11820;48.738;9.092;2023-05-09T11:49:44;3.13;;;2.70;;
23302;SDS011;11820;48.738;9.092;2023-05-09T11:52:09;3.30;;;3.00;;
23302;SDS011;11820;48.738;9.092;2023-05-09T11:54:37;3.37;;;2.60;;
23302;SDS011;11820;48.738;9.092;2023-05-09T11:57:03;3.00;;;2.70;;
23302;SDS011;11820;48.738;9.092;2023-05-09T11:59:29;3.20;;;2.93;;
23302;SDS011;11820;48.738;9.092;2023-05-09T12:01:54;2.27;;;2.07;;
23302;SDS011;11820;48.738;9.092;2023-05-09T12:04:20;2.10;;;1.97;;
23302;SDS011;11820;48.738;9.092;2023-05-09T12:06:46;2.00;;;1.90;;
23302;SDS011;11820;48.738;9.092;2023-05-09T12:09:12;2.37;;;2.17;;
23302;SDS011;11820;48.738;9.092;2023-05-09T12:11:45;2.00;;;1.90;;
23302;SDS011;11820;48.738;9.092;2023-05-09T12:14:30;2.30;;;2.10;;
23302;SDS011;11820;48.738;9.092;2023-05-09T12:16:57;2.17;;;2.00;;
23302;SDS011;11820;48.738;9.092;2023-05-09T12:19:23;3.47;;;1.97;;
23302;SDS011;11820;48.738;9.092;2023-05-09T12:21:56;3.00;;;2.30;;
23302;SDS011;11820;48.738;9.092;2023-05-09T12:24:23;2.00;;;1.80;;
23302;SDS011;11820;48.738;9.092;2023-05-09T12:26:50;1.80;;;1.70;;
23302;SDS011;11820;48.738;9.092;2023-05-09T12:29:16;2.87;;;1.50;;
23302;SDS011;11820;48.738;9.092;2023-05-09T12:31:42;2.17;;;1.87;;
23302;SDS011;11820;48.738;9.092;2023-05-09T12:34:08;2.03;;;1.93;;
23302;SDS011;11820;48.738;9.092;2023-05-09T12:36:37;2.13;;;1.70;;
23302;SDS011;11820;48.738;9.092;2023-05-09T12:39:07;2.07;;;1.70;;
23302;SDS011;11820;48.738;9.092;2023-05-09T12:41:34;2.23;;;2.03;;
23302;SDS011;11820;48.738;9.092;2023-05-09T12:44:06;2.00;;;1.90;;
23302;SDS011;11820;48.738;9.092;2023-05-09T12:46:31;1.90;;;1.80;;
23302;SDS011;11820;48.738;9.092;2023-05-09T12:48:57;2.00;;;1.90;;
23302;SDS011;11820;48.738;9.092;2023-05-09T12:51:22;2.20;;;2.00;;
23302;SDS011;11820;48.738;9.092;2023-05-09T12:53:48;1.80;;;1.70;;
23302;SDS011;11820;48.738;9.092;2023-05-09T12:56:14;2.30;;;2.10;;
23302;SDS011;11820;48.738;9.092;2023-05-09T12:58:48;2.10;;;2.00;;
23302;SDS011;11820;48.738;9.092;2023-05-09T13:01:15;2.07;;;1.97;;
23302;SDS011;11820;48.738;9.092;2023-05-09T13:03:41;2.10;;;1.90;;
23302;SDS011;11820;48.738;9.092;2023-05-09T13:06:11;2.83;;;1.90;;
23302;SDS011;11820;48.738;9.092;2023-05-09T13:08:38;2.33;;;2.10;;
23302;SDS011;11820;48.738;9.092;2023-05-09T13:11:04;3.83;;;2.20;;
23302;SDS011;11820;48.738;9.092;2023-05-09T13:13:30;3.30;;;2.60;;
23302;SDS011;11820;48.738;9.092;2023-05-09T13:15:55;2.13;;;2.00;;
23302;SDS011;11820;48.738;9.092;2023-05-09T13:18:21;3.30;;;2.10;;
23302;SDS011;11820;48.738;9.092;2023-05-09T13:20:48;2.93;;;1.90;;
23302;SDS011;11820;48.738;9.092;2023-05-09T13:23:16;3.40;;;2.30;;
23302;SDS011;11820;48.738;9.092;2023-05-09T13:25:42;2.70;;;2.40;;
23302;SDS011;11820;48.738;9.092;2023-05-09T13:28:07;1.80;;;1.70;;
23302;SDS011;11820;48.738;9.092;2023-05-09T13:30:32;1.87;;;1.60;;
23302;SDS011;11820;48.738;9.092;2023-05-09T13:32:58;1.90;;;1.80;;
23302;SDS011;11820;48.738;9.092;2023-05-09T13:35:23;2.10;;;1.90;;
23302;SDS011;11820;48.738;9.092;2023-05-09T13:37:49;3.03;;;1.80;;
23302;SDS011;11820;48.738;9.092;2023-05-09T13:40:15;1.80;;;1.70;;
23302;SDS011;11820;48.738;9.092;2023-05-09T13:42:40;2.70;;;2.00;;
23302;SDS011;11820;48.738;9.092;2023-05-09T13:45:06;5.33;;;2.10;;
23302;SDS011;11820;48.738;9.092;2023-05-09T13:47:32;3.27;;;1.60;;
23302;SDS011;11820;48.738;9.092;2023-05-09T13:49:57;2.17;;;1.87;;
23302;SDS011;11820;48.738;9.092;2023-05-09T13:52:23;1.67;;;1.57;;
23302;SDS011;11820;48.738;9.092;2023-05-09T13:54:48;4.37;;;2.10;;
23302;SDS011;11820;48.738;9.092;2023-05-09T13:57:14;4.37;;;2.33;;
23302;SDS011;11820;48.738;9.092;2023-05-09T13:59:39;2.17;;;2.00;;
23302;SDS011;11820;48.738;9.092;2023-05-09T14:02:05;2.50;;;2.13;;
23302;SDS011;11820;48.738;9.092;2023-05-09T14:04:31;1.80;;;1.70;;
23302;SDS011;11820;48.738;9.092;2023-05-09T14:06:56;3.93;;;2.23;;
23302;SDS011;11820;48.738;9.092;2023-05-09T14:09:23;2.37;;;2.17;;
23302;SDS011;11820;48.738;9.092;2023-05-09T14:11:50;2.60;;;2.40;;
23302;SDS011;11820;48.738;9.092;2023-05-09T14:14:19;2.27;;;2.07;;
23302;SDS011;11820;48.738;9.092;2023-05-09T14:16:45;3.43;;;2.27;;
23302;SDS011;11820;48.738;9.092;2023-05-09T14:19:11;3.77;;;2.33;;
23302;SDS011;11820;48.738;9.092;2023-05-09T14:21:39;2.23;;;2.03;;
23302;SDS011;11820;48.738;9.092;2023-05-09T14:24:06;2.67;;;2.30;;
23302;SDS011;11820;48.738;9.092;2023-05-09T14:26:32;4.50;;;2.50;;
23302;SDS011;11820;48.738;9.092;2023-05-09T14:28:57;2.30;;;2.10;;
23302;SDS011;11820;48.738;9.092;2023-05-09T14:31:22;3.40;;;1.97;;
23302;SDS011;11820;48.738;9.092;2023-05-09T14:33:48;2.30;;;2.10;;
23302;SDS011;11820;48.738;9.092;2023-05-09T14:36:13;3.53;;;2.03;;
23302;SDS011;11820;48.738;9.092;2023-05-09T14:38:38;4.47;;;2.20;;
23302;SDS011;11820;48.738;9.092;2023-05-09T14:41:04;2.20;;;2.00;;
23302;SDS011;11820;48.738;9.092;2023-05-09T14:43:30;1.90;;;1.70;;
23302;SDS011;11820;48.738;9.092;2023-05-09T14:45:56;1.07;;;1.00;;